Terminal Aerodrome Forecast
Issued by NWS Grand Forks, ND

Home | Current Version | Previous Version | Text Only | Print | Product List | Glossary Off
Versions: 1 2 3 4 5 6 7 8 9 10 11 12 13 14 15 16 17 18 19 20

110
FTUS43 KFGF 121735 AAD
TAFFAR
TAF AMD
KFAR 121735Z 1218/1318 35014KT P6SM SCT014
     FM130000 34004KT P6SM SKC
     FM131000 15004KT P6SM SCT250=

USA.gov is the U.S. government's official web portal to all federal, state and local government web resources and services.